createdAt,value
2019-05-02T08:00:38.676Z,15836.00
2019-05-02T08:01:38.617Z,15708.00
2019-05-02T08:02:38.614Z,15652.00
2019-05-02T08:03:38.593Z,15980.00
2019-05-02T08:04:38.585Z,17504.00
2019-05-02T08:05:38.585Z,18592.00
2019-05-02T08:06:40.174Z,18304.00
2019-05-02T08:07:39.577Z,18048.00
2019-05-02T08:08:38.620Z,17408.00
2019-05-02T08:09:39.153Z,17472.00
2019-05-02T08:10:39.546Z,18240.00
2019-05-02T08:11:38.682Z,19264.00
2019-05-02T08:12:38.687Z,20096.00
2019-05-02T08:13:38.487Z,20320.00
2019-05-02T08:14:38.512Z,18848.00
2019-05-02T08:15:38.485Z,18080.00
2019-05-02T08:16:38.456Z,18560.00
2019-05-02T08:17:38.449Z,17504.00
2019-05-02T08:18:38.516Z,17952.00
2019-05-02T08:19:41.857Z,18464.00
2019-05-02T08:20:38.412Z,19328.00
2019-05-02T08:21:38.458Z,19712.00
2019-05-02T08:22:38.475Z,19616.00
2019-05-02T08:23:38.380Z,18880.00
2019-05-02T08:24:39.325Z,18272.00
2019-05-02T08:25:41.522Z,17504.00
2019-05-02T08:26:39.345Z,16592.00
2019-05-02T08:27:38.333Z,16476.00
2019-05-02T08:28:38.319Z,16780.00
2019-05-02T08:29:38.319Z,17088.00
2019-05-02T08:30:40.513Z,16568.00
2019-05-02T08:31:38.304Z,15756.00
2019-05-02T08:32:38.277Z,16044.00
2019-05-02T08:33:38.262Z,15584.00
2019-05-02T08:34:38.257Z,15396.00
2019-05-02T08:35:38.249Z,15528.00
2019-05-02T08:36:38.267Z,15708.00
2019-05-02T08:37:41.237Z,15564.00
2019-05-02T08:38:38.206Z,16420.00
2019-05-02T08:39:38.198Z,16128.00
2019-05-02T08:40:42.286Z,16036.00
2019-05-02T08:41:39.204Z,15988.00
2019-05-02T08:42:38.162Z,16244.00
2019-05-02T08:43:43.253Z,15736.00
2019-05-02T08:44:50.349Z,15544.00
2019-05-02T08:45:39.639Z,15084.00
2019-05-02T08:46:38.119Z,15012.00
2019-05-02T08:47:38.142Z,15192.00
2019-05-02T08:48:41.812Z,15320.00
2019-05-02T08:49:39.087Z,15660.00
2019-05-02T08:50:38.074Z,15956.00
2019-05-02T08:51:38.086Z,15868.00
2019-05-02T08:52:42.195Z,15616.00
2019-05-02T08:53:38.073Z,15936.00
2019-05-02T08:54:38.061Z,16020.00
2019-05-02T08:55:41.236Z,16264.00
2019-05-02T08:56:39.007Z,16504.00
2019-05-02T08:57:37.999Z,16872.00
2019-05-02T08:58:38.009Z,17536.00
2019-05-02T08:59:40.722Z,18208.00
2019-05-02T09:00:39.584Z,18528.00
2019-05-02T09:01:37.955Z,19008.00
2019-05-02T09:02:41.420Z,19840.00
2019-05-02T09:03:54.842Z,21152.00
2019-05-02T09:04:38.949Z,22240.00
2019-05-02T09:05:45.626Z,23104.00
2019-05-02T09:06:38.896Z,23264.00
2019-05-02T09:07:39.374Z,23584.00
2019-05-02T09:08:37.877Z,23904.00
2019-05-02T09:09:37.871Z,22336.00
2019-05-02T09:10:42.195Z,20992.00
2019-05-02T09:11:38.840Z,19456.00
2019-05-02T09:12:42.039Z,18784.00
2019-05-02T09:13:38.815Z,17984.00
2019-05-02T09:14:37.803Z,17248.00
2019-05-02T09:15:40.256Z,17184.00
2019-05-02T09:16:38.844Z,18432.00
2019-05-02T09:17:38.835Z,19232.00
2019-05-02T09:18:44.835Z,19488.00
2019-05-02T09:19:38.750Z,20384.00
2019-05-02T09:20:37.741Z,21120.00
2019-05-02T09:21:37.735Z,22240.00
2019-05-02T09:22:37.768Z,23136.00
2019-05-02T09:23:37.711Z,23232.00
2019-05-02T09:24:37.696Z,24128.00
2019-05-02T09:25:37.690Z,23360.00
2019-05-02T09:26:38.736Z,22560.00
2019-05-02T09:27:37.667Z,21312.00
2019-05-02T09:28:37.768Z,21632.00
2019-05-02T09:29:44.429Z,21088.00
2019-05-02T09:30:38.628Z,19840.00
2019-05-02T09:31:42.238Z,19264.00
2019-05-02T09:32:38.609Z,18880.00
2019-05-02T09:33:45.233Z,19776.00
2019-05-02T09:34:38.625Z,20640.00
2019-05-02T09:35:37.591Z,20576.00
2019-05-02T09:36:38.201Z,20832.00
2019-05-02T09:37:37.552Z,21120.00
2019-05-02T09:38:37.544Z,21216.00
2019-05-02T09:39:37.534Z,20704.00
2019-05-02T09:40:37.557Z,20384.00
2019-05-02T09:41:37.529Z,19840.00
2019-05-02T09:42:37.501Z,19456.00
2019-05-02T09:43:39.066Z,18432.00
2019-05-02T09:44:37.500Z,18080.00
2019-05-02T09:45:39.501Z,17920.00
2019-05-02T09:46:37.498Z,17728.00
2019-05-02T09:47:53.201Z,17044.00
2019-05-02T09:48:38.430Z,17664.00
2019-05-02T09:49:43.547Z,17696.00
2019-05-02T09:50:38.613Z,18048.00
2019-05-02T09:51:37.399Z,18304.00
2019-05-02T09:52:39.669Z,18432.00
2019-05-02T09:53:37.378Z,18464.00
2019-05-02T09:54:42.446Z,18976.00
2019-05-02T09:55:42.366Z,18624.00
2019-05-02T09:56:37.362Z,18368.00
2019-05-02T09:57:37.341Z,18432.00
2019-05-02T09:58:37.360Z,17824.00
2019-05-02T09:59:37.314Z,17664.00
2019-05-02T10:00:37.310Z,17472.00
2019-05-02T10:01:37.291Z,16720.00
2019-05-02T10:02:37.317Z,16028.00
2019-05-02T10:03:37.276Z,16352.00
2019-05-02T10:04:37.299Z,17220.00
2019-05-02T10:05:37.246Z,18048.00
2019-05-02T10:06:37.232Z,18144.00
2019-05-02T10:07:37.221Z,18112.00
2019-05-02T10:08:38.319Z,18400.00
2019-05-02T10:09:38.259Z,18624.00
2019-05-02T10:10:41.840Z,18912.00
2019-05-02T10:11:38.178Z,18720.00
2019-05-02T10:12:37.177Z,18336.00
2019-05-02T10:13:37.164Z,18176.00
2019-05-02T10:14:37.146Z,18496.00
2019-05-02T10:15:37.194Z,18560.00
2019-05-02T10:16:37.132Z,18592.00
2019-05-02T10:17:37.536Z,18816.00
2019-05-02T10:18:37.105Z,18848.00
2019-05-02T10:19:41.141Z,18592.00
2019-05-02T10:20:38.117Z,18688.00
2019-05-02T10:21:37.099Z,19104.00
2019-05-02T10:22:39.352Z,19104.00
2019-05-02T10:23:37.051Z,19616.00
2019-05-02T10:24:37.041Z,19872.00
2019-05-02T10:25:38.990Z,20128.00
2019-05-02T10:26:38.044Z,20288.00
2019-05-02T10:27:38.508Z,20096.00
2019-05-02T10:28:41.779Z,20160.00
2019-05-02T10:29:37.984Z,20448.00
2019-05-02T10:30:36.973Z,20672.00
2019-05-02T10:31:37.814Z,20800.00
2019-05-02T10:32:36.998Z,20960.00
2019-05-02T10:33:37.672Z,20896.00
2019-05-02T10:34:36.940Z,20928.00
2019-05-02T10:35:40.582Z,21344.00
2019-05-02T10:36:36.912Z,21760.00
2019-05-02T10:37:38.193Z,21984.00
2019-05-02T10:38:36.923Z,22144.00
2019-05-02T10:39:37.958Z,22336.00
2019-05-02T10:40:36.891Z,22112.00
2019-05-02T10:41:39.644Z,21984.00
2019-05-02T10:42:36.842Z,22304.00
2019-05-02T10:43:36.833Z,23008.00
2019-05-02T10:44:36.867Z,23456.00
2019-05-02T10:45:36.812Z,24416.00
2019-05-02T10:46:37.918Z,24896.00
2019-05-02T10:47:36.788Z,25056.00
2019-05-02T10:48:36.783Z,24544.00
2019-05-02T10:49:36.767Z,24512.00
2019-05-02T10:50:36.806Z,23648.00
2019-05-02T10:51:41.755Z,25664.00
2019-05-02T10:52:37.771Z,26016.00
2019-05-02T10:53:36.731Z,26304.00
2019-05-02T10:54:37.458Z,27008.00
2019-05-02T10:55:36.702Z,27808.00
2019-05-02T10:56:36.720Z,28448.00
2019-05-02T10:57:36.699Z,29120.00
2019-05-02T10:58:36.670Z,28480.00
2019-05-02T10:59:36.696Z,29856.00
2019-05-02T11:00:36.646Z,31296.00
2019-05-02T11:01:36.637Z,31360.00
2019-05-02T11:02:36.673Z,28192.00
2019-05-02T11:03:38.003Z,30848.00
2019-05-02T11:04:37.616Z,30976.00
2019-05-02T11:05:37.410Z,32416.00
2019-05-02T11:06:37.143Z,32832.00
2019-05-02T11:07:37.623Z,32704.00
2019-05-02T11:08:40.958Z,33504.00
2019-05-02T11:09:37.551Z,35808.00
2019-05-02T11:10:36.537Z,36672.00
2019-05-02T11:11:36.561Z,37408.00
2019-05-02T11:12:44.514Z,37312.00
2019-05-02T11:13:37.544Z,35552.00
2019-05-02T11:14:36.499Z,36160.00
2019-05-02T11:15:36.483Z,37056.00
2019-05-02T11:16:36.471Z,37632.00
2019-05-02T11:17:36.681Z,39296.00
2019-05-02T11:18:41.885Z,39904.00
2019-05-02T11:19:37.499Z,36640.00
2019-05-02T11:20:36.428Z,39168.00
2019-05-02T11:21:36.424Z,38912.00
2019-05-02T11:22:36.410Z,38592.00
2019-05-02T11:23:36.426Z,39360.00
2019-05-02T11:24:36.434Z,39072.00
2019-05-02T11:25:36.432Z,38624.00
2019-05-02T11:26:36.395Z,39712.00
2019-05-02T11:27:36.354Z,39488.00
2019-05-02T11:28:36.355Z,41056.00
2019-05-02T11:29:36.346Z,39808.00
2019-05-02T11:30:36.324Z,40320.00
2019-05-02T11:31:36.351Z,38208.00
2019-05-02T11:32:36.410Z,38240.00
2019-05-02T11:33:36.291Z,40032.00
2019-05-02T11:34:36.279Z,39360.00
2019-05-02T11:35:36.277Z,40608.00
2019-05-02T11:36:36.256Z,40992.00
2019-05-02T11:37:36.296Z,41632.00
2019-05-02T11:38:36.918Z,38816.00
2019-05-02T11:39:45.377Z,39392.00
2019-05-02T11:40:37.247Z,42944.00
2019-05-02T11:41:36.204Z,44512.00
2019-05-02T11:42:36.198Z,46176.00
2019-05-02T11:43:37.249Z,46496.00
2019-05-02T11:44:37.169Z,48032.00
2019-05-02T11:45:36.167Z,41728.00
2019-05-02T11:46:37.497Z,39360.00
2019-05-02T11:47:37.137Z,44448.00
2019-05-02T11:48:36.128Z,42432.00
2019-05-02T11:49:36.161Z,44480.00
2019-05-02T11:50:36.107Z,46080.00
2019-05-02T11:51:36.091Z,44704.00
2019-05-02T11:52:37.564Z,48608.00
2019-05-02T11:53:36.070Z,48736.00
2019-05-02T11:54:39.318Z,49504.00
2019-05-02T11:55:37.100Z,49312.00
2019-05-02T11:56:36.042Z,50144.00
2019-05-02T11:57:36.029Z,51968.00
2019-05-02T11:58:41.806Z,54048.00
2019-05-02T11:59:37.004Z,53696.00
2019-05-02T12:00:39.727Z,53472.00
2019-05-02T12:01:39.796Z,52000.00
2019-05-02T12:02:35.984Z,51584.00
2019-05-02T12:03:37.086Z,50688.00
2019-05-02T12:04:35.974Z,52192.00
2019-05-02T12:05:39.048Z,53952.00
2019-05-02T12:06:35.932Z,56928.00
2019-05-02T12:07:35.955Z,57472.00
2019-05-02T12:08:39.345Z,58112.00
2019-05-02T12:09:36.905Z,58240.00
2019-05-02T12:10:36.758Z,60224.00
2019-05-02T12:11:35.909Z,60480.00
2019-05-02T12:12:36.371Z,54336.00
2019-05-02T12:13:35.899Z,59648.00
2019-05-02T12:14:36.506Z,62848.00
2019-05-02T12:15:35.846Z,57824.00
2019-05-02T12:16:35.833Z,55936.00
2019-05-02T12:17:35.821Z,54880.00
2019-05-02T12:18:35.865Z,53792.00
2019-05-02T12:19:35.838Z,48384.00
2019-05-02T12:20:36.807Z,48928.00
2019-05-02T12:21:35.779Z,60544.00
2019-05-02T12:22:35.775Z,54848.00
2019-05-02T12:23:36.425Z,64160.00
2019-05-02T12:24:36.464Z,54528.00
2019-05-02T12:25:35.922Z,48608.00
2019-05-02T12:26:35.723Z,41632.00
2019-05-02T12:27:35.727Z,38816.00
2019-05-02T12:28:35.699Z,43968.00
2019-05-02T12:29:35.695Z,44960.00
2019-05-02T12:30:37.724Z,46720.00
2019-05-02T12:31:35.717Z,49632.00
2019-05-02T12:32:35.673Z,50592.00
2019-05-02T12:33:35.668Z,47936.00
2019-05-02T12:34:35.636Z,42784.00
2019-05-02T12:35:35.875Z,49472.00
2019-05-02T12:36:35.881Z,42688.00
2019-05-02T12:37:35.647Z,37280.00
2019-05-02T12:38:35.600Z,36384.00
2019-05-02T12:39:35.588Z,44992.00
2019-05-02T12:40:35.597Z,51936.00
2019-05-02T12:41:35.571Z,45824.00
2019-05-02T12:42:35.812Z,43072.00
2019-05-02T12:43:35.591Z,43136.00
2019-05-02T12:44:35.531Z,49344.00
2019-05-02T12:45:35.522Z,48480.00
2019-05-02T12:46:35.539Z,39456.00
2019-05-02T12:47:35.502Z,32544.00
2019-05-02T12:48:35.505Z,30336.00
2019-05-02T12:49:35.528Z,29824.00
2019-05-02T12:50:35.481Z,29664.00
2019-05-02T12:51:35.467Z,29888.00
2019-05-02T12:52:35.452Z,30016.00
2019-05-02T12:53:35.443Z,31232.00
2019-05-02T12:54:35.448Z,31968.00
2019-05-02T12:55:35.481Z,32992.00
2019-05-02T12:56:36.385Z,31776.00
2019-05-02T12:57:35.398Z,30304.00
2019-05-02T12:58:35.382Z,30496.00
2019-05-02T12:59:35.373Z,30816.00
2019-05-02T13:00:35.422Z,31616.00
2019-05-02T13:01:35.390Z,35904.00
2019-05-02T13:02:35.349Z,37216.00
2019-05-02T13:03:35.330Z,35968.00
2019-05-02T13:04:35.370Z,33920.00
2019-05-02T13:05:35.306Z,31264.00
2019-05-02T13:06:37.115Z,30592.00
2019-05-02T13:07:35.353Z,30496.00
2019-05-02T13:08:35.286Z,30208.00
2019-05-02T13:09:35.265Z,29920.00
2019-05-02T13:10:35.254Z,30752.00
2019-05-02T13:11:36.829Z,32576.00
2019-05-02T13:12:36.331Z,35040.00
2019-05-02T13:13:35.219Z,35840.00
2019-05-02T13:14:35.207Z,40640.00
2019-05-02T13:15:35.203Z,42240.00
2019-05-02T13:16:35.182Z,42112.00
2019-05-02T13:17:42.819Z,41536.00
2019-05-02T13:18:37.225Z,42176.00
2019-05-02T13:19:39.894Z,43712.00
2019-05-02T13:20:38.296Z,44736.00
2019-05-02T13:21:42.223Z,45632.00
2019-05-02T13:22:36.182Z,46592.00
2019-05-02T13:23:37.162Z,47168.00
2019-05-02T13:24:35.177Z,48000.00
2019-05-02T13:25:36.871Z,46432.00
2019-05-02T13:26:35.076Z,40384.00
2019-05-02T13:27:43.274Z,48224.00
2019-05-02T13:28:36.084Z,48032.00
2019-05-02T13:29:35.041Z,48000.00
2019-05-02T13:30:42.797Z,47808.00
2019-05-02T13:31:36.027Z,49760.00
2019-05-02T13:32:35.007Z,52704.00
2019-05-02T13:33:35.954Z,55072.00
2019-05-02T13:34:34.987Z,54304.00
2019-05-02T13:35:34.975Z,55968.00
2019-05-02T13:36:35.005Z,56640.00
2019-05-02T13:37:35.086Z,58048.00
2019-05-02T13:38:34.955Z,64416.00
2019-05-02T13:39:34.935Z,66752.00
2019-05-02T13:40:34.928Z,69376.00
2019-05-02T13:41:34.944Z,71296.00
2019-05-02T13:42:34.943Z,71168.00
2019-05-02T13:43:34.894Z,71648.00
2019-05-02T13:44:34.881Z,74656.00
2019-05-02T13:45:34.896Z,73920.00
2019-05-02T13:46:34.863Z,77056.00
2019-05-02T13:47:34.852Z,79072.00
2019-05-02T13:48:34.982Z,75296.00
2019-05-02T13:49:34.833Z,64032.00
2019-05-02T13:50:34.817Z,62592.00
2019-05-02T13:51:36.550Z,68672.00
2019-05-02T13:52:34.805Z,53024.00
2019-05-02T13:53:34.788Z,55392.00
2019-05-02T13:54:34.810Z,69088.00
2019-05-02T13:55:34.767Z,65248.00
2019-05-02T13:56:34.755Z,58144.00
2019-05-02T13:57:41.733Z,62208.00
2019-05-02T13:58:35.755Z,83392.00
2019-05-02T13:59:34.731Z,86112.00
2019-05-02T14:00:34.751Z,78496.00
2019-05-02T14:01:34.703Z,62144.00
2019-05-02T14:02:34.693Z,69312.00
2019-05-02T14:03:34.683Z,72352.00
2019-05-02T14:04:34.700Z,75360.00
2019-05-02T14:05:34.662Z,75232.00
2019-05-02T14:06:37.984Z,79264.00
2019-05-02T14:07:34.650Z,78400.00
2019-05-02T14:08:36.876Z,76128.00
2019-05-02T14:09:34.626Z,41504.00
2019-05-02T14:10:39.240Z,80128.00
2019-05-02T14:11:35.663Z,80800.00
2019-05-02T14:12:34.591Z,77600.00
2019-05-02T14:13:34.583Z,75904.00
2019-05-02T14:14:34.600Z,67200.00
2019-05-02T14:15:34.576Z,73184.00
2019-05-02T14:16:34.555Z,75136.00
2019-05-02T14:17:34.601Z,61120.00
2019-05-02T14:18:34.534Z,48928.00
2019-05-02T14:19:34.524Z,41632.00
2019-05-02T14:20:37.263Z,41504.00
2019-05-02T14:21:34.506Z,72928.00
2019-05-02T14:22:34.516Z,48128.00
2019-05-02T14:23:34.523Z,42336.00
2019-05-02T14:24:34.468Z,54912.00
2019-05-02T14:25:34.463Z,51264.00
2019-05-02T14:26:34.455Z,30048.00
2019-05-02T14:27:34.443Z,27200.00
2019-05-02T14:28:36.432Z,27520.00
2019-05-02T14:29:34.488Z,25216.00
2019-05-02T14:30:39.358Z,25760.00
2019-05-02T14:31:35.394Z,25408.00
2019-05-02T14:32:34.423Z,26528.00
2019-05-02T14:33:34.379Z,27680.00
2019-05-02T14:34:34.368Z,28992.00
2019-05-02T14:35:36.295Z,28480.00
2019-05-02T14:36:34.356Z,26592.00
2019-05-02T14:37:34.338Z,26880.00
2019-05-02T14:38:34.322Z,27104.00
2019-05-02T14:39:34.315Z,25824.00
2019-05-02T14:40:34.304Z,24672.00
2019-05-02T14:41:40.900Z,24320.00
2019-05-02T14:42:35.301Z,25376.00
2019-05-02T14:43:38.257Z,28768.00
2019-05-02T14:45:01.373Z,54464.00
2019-05-02T14:45:35.272Z,73792.00
2019-05-02T14:46:39.323Z,79136.00
2019-05-02T14:47:35.309Z,70656.00
2019-05-02T14:48:41.082Z,51008.00
2019-05-02T14:49:35.388Z,52704.00
2019-05-02T14:50:36.573Z,43168.00
2019-05-02T14:51:36.740Z,35296.00
2019-05-02T14:52:37.150Z,41280.00
2019-05-02T14:53:35.931Z,31776.00
2019-05-02T14:54:38.035Z,29344.00
2019-05-02T14:55:35.139Z,23776.00
2019-05-02T14:56:37.717Z,20192.00
2019-05-02T14:57:35.139Z,18464.00
2019-05-02T14:58:37.723Z,17600.00
2019-05-02T14:59:34.141Z,16544.00
2019-05-02T15:00:39.433Z,15108.00
2019-05-02T15:01:35.090Z,13432.00
2019-05-02T15:02:34.610Z,11928.00
2019-05-02T15:03:34.069Z,10944.00
2019-05-02T15:04:38.320Z,10444.00
2019-05-02T15:05:35.057Z,10364.00
2019-05-02T15:06:38.420Z,10332.00
2019-05-02T15:07:35.010Z,10472.00
2019-05-02T15:08:36.727Z,10828.00
2019-05-02T15:09:36.316Z,11128.00
2019-05-02T15:10:38.806Z,11440.00
2019-05-02T15:11:35.152Z,11816.00
2019-05-02T15:12:33.954Z,11992.00
2019-05-02T15:13:40.115Z,11916.00
2019-05-02T15:14:34.945Z,11872.00
2019-05-02T15:15:40.664Z,11812.00
2019-05-02T15:16:42.287Z,11580.00
2019-05-02T15:17:37.809Z,11240.00
2019-05-02T15:18:33.890Z,10672.00
2019-05-02T15:19:33.878Z,9832.00
2019-05-02T15:20:39.247Z,8728.00
2019-05-02T15:21:35.019Z,7304.00
2019-05-02T15:22:37.410Z,5844.00
2019-05-02T15:23:33.866Z,4812.00
2019-05-02T15:24:37.433Z,4232.00
2019-05-02T15:25:33.816Z,3888.00
2019-05-02T15:26:35.621Z,3648.00
2019-05-02T15:27:42.277Z,3488.00
2019-05-02T15:28:37.378Z,3392.00
2019-05-02T15:29:33.767Z,3304.00
2019-05-02T15:30:37.250Z,3272.00
2019-05-02T15:31:34.745Z,3216.00
2019-05-02T15:32:37.278Z,3092.00
2019-05-02T15:33:34.728Z,2868.00
2019-05-02T15:34:35.567Z,2744.00
2019-05-02T15:35:35.968Z,2724.00
2019-05-02T15:36:37.062Z,2796.00
2019-05-02T15:37:35.954Z,2932.00
2019-05-02T15:38:37.279Z,3080.00
2019-05-02T15:40:43.485Z,3204.00
2019-05-02T15:41:34.636Z,3176.00
2019-05-02T15:42:33.655Z,3144.00
2019-05-02T15:43:33.618Z,3140.00
2019-05-02T15:44:33.611Z,3112.00
2019-05-02T15:45:36.817Z,3124.00
2019-05-02T15:46:34.582Z,3148.00
2019-05-02T15:47:36.969Z,3204.00
2019-05-02T15:48:34.577Z,3240.00
2019-05-02T15:49:36.681Z,3332.00
2019-05-02T15:50:34.592Z,3404.00
2019-05-02T15:51:33.538Z,3412.00
2019-05-02T15:52:33.515Z,3348.00
2019-05-02T15:53:33.507Z,3164.00
2019-05-02T15:54:33.497Z,2928.00
2019-05-02T15:55:39.562Z,2748.00
2019-05-02T15:56:35.658Z,2728.00
2019-05-02T15:57:42.807Z,2832.00
2019-05-02T15:58:34.449Z,2988.00
2019-05-02T15:59:37.690Z,3176.00
2019-05-02T16:00:34.433Z,3356.00
2019-05-02T16:01:36.602Z,3536.00
2019-05-02T16:02:34.500Z,3696.00
2019-05-02T16:03:34.390Z,3812.00
2019-05-02T16:04:34.386Z,3916.00
2019-05-02T16:05:36.512Z,4000.00
2019-05-02T16:06:34.382Z,4024.00
2019-05-02T16:07:33.351Z,3936.00
2019-05-02T16:08:33.476Z,3748.00
2019-05-02T16:09:33.334Z,3496.00
2019-05-02T16:10:38.471Z,3200.00
2019-05-02T16:11:34.320Z,2984.00
2019-05-02T16:12:36.066Z,2840.00
2019-05-02T16:13:33.293Z,2744.00
2019-05-02T16:14:35.938Z,2668.00
2019-05-02T16:15:33.295Z,2596.00
2019-05-02T16:16:36.572Z,2528.00
2019-05-02T16:17:34.244Z,2464.00
2019-05-02T16:18:36.011Z,2428.00
2019-05-02T16:19:34.258Z,2420.00
2019-05-02T16:20:33.210Z,2424.00
2019-05-02T16:21:33.206Z,2452.00
2019-05-02T16:22:33.189Z,2512.00
2019-05-02T16:23:35.644Z,2572.00
2019-05-02T16:24:33.220Z,2636.00
2019-05-02T16:25:34.080Z,2724.00
2019-05-02T16:26:35.276Z,2820.00
2019-05-02T16:27:34.145Z,2928.00
2019-05-02T16:28:36.828Z,3056.00
2019-05-02T16:29:34.159Z,3188.00
2019-05-02T16:30:36.995Z,3296.00
2019-05-02T16:31:34.134Z,3376.00
2019-05-02T16:32:35.681Z,3464.00
2019-05-02T16:33:33.069Z,3540.00
2019-05-02T16:34:35.309Z,3628.00
2019-05-02T16:35:33.091Z,3704.00
2019-05-02T16:36:37.409Z,3704.00
2019-05-02T16:37:33.067Z,3728.00
2019-05-02T16:38:34.955Z,3756.00
2019-05-02T16:39:33.001Z,3760.00
2019-05-02T16:40:34.918Z,3664.00
2019-05-02T16:41:32.981Z,3444.00
2019-05-02T16:42:32.969Z,3068.00
2019-05-02T16:43:33.012Z,2588.00
2019-05-02T16:44:32.982Z,2328.00
2019-05-02T16:45:32.946Z,2336.00
2019-05-02T16:46:32.999Z,2384.00
2019-05-02T16:47:32.982Z,2212.00
2019-05-02T16:48:37.622Z,2096.00
2019-05-02T16:49:34.010Z,1976.00
2019-05-02T16:50:36.663Z,1848.00
2019-05-02T16:51:34.603Z,1740.00
2019-05-02T16:52:32.859Z,1696.00
2019-05-02T16:53:33.395Z,1620.00
2019-05-02T16:54:34.548Z,1448.00
2019-05-02T16:55:33.883Z,1292.00
2019-05-02T16:56:36.928Z,1192.00
2019-05-02T16:57:35.141Z,1024.00
2019-05-02T16:58:33.703Z,872.00
2019-05-02T16:59:34.436Z,776.00
2019-05-02T17:00:37.056Z,712.00
2019-05-02T17:01:33.865Z,716.00
2019-05-02T17:02:32.759Z,684.00
2019-05-02T17:03:32.750Z,704.00
2019-05-02T17:04:32.730Z,696.00
2019-05-02T17:05:32.717Z,668.00
2019-05-02T17:06:32.709Z,668.00
2019-05-02T17:07:34.930Z,628.00
2019-05-02T17:08:33.684Z,628.00
2019-05-02T17:09:33.541Z,720.00
2019-05-02T17:10:35.045Z,948.00
2019-05-02T17:11:35.800Z,1260.00
2019-05-02T17:12:32.643Z,1500.00
2019-05-02T17:13:35.629Z,1476.00
2019-05-02T17:14:32.653Z,1444.00
2019-05-02T17:15:35.422Z,1424.00
2019-05-02T17:16:32.601Z,1044.00
2019-05-02T17:17:34.871Z,988.00
2019-05-02T17:18:32.750Z,1012.00
2019-05-02T17:19:34.789Z,968.00
2019-05-02T17:20:32.556Z,1172.00
2019-05-02T17:21:52.248Z,1888.00
2019-05-02T17:22:33.534Z,1900.00
2019-05-02T17:23:32.863Z,1764.00
2019-05-02T17:24:32.511Z,1820.00
2019-05-02T17:25:32.586Z,1800.00
2019-05-02T17:26:32.489Z,1860.00
2019-05-02T17:27:32.588Z,1896.00
2019-05-02T17:28:32.467Z,1748.00
2019-05-02T17:29:32.564Z,1476.00
2019-05-02T17:30:38.617Z,1744.00
2019-05-02T17:31:33.465Z,1760.00
2019-05-02T17:32:34.146Z,1692.00
2019-05-02T17:33:33.441Z,1676.00
2019-05-02T17:34:34.867Z,1712.00
2019-05-02T17:35:32.633Z,1896.00
2019-05-02T17:36:32.635Z,1700.00
2019-05-02T17:37:32.603Z,1416.00
2019-05-02T17:38:32.387Z,1280.00
2019-05-02T17:39:32.349Z,992.00
2019-05-02T17:40:32.346Z,944.00
2019-05-02T17:41:32.328Z,896.00
2019-05-02T17:42:32.435Z,904.00
2019-05-02T17:43:32.951Z,1036.00
2019-05-02T17:44:32.325Z,968.00
2019-05-02T17:45:33.570Z,948.00
2019-05-02T17:46:33.273Z,956.00
2019-05-02T17:47:36.059Z,928.00
2019-05-02T17:48:34.751Z,1012.00
2019-05-02T17:49:36.682Z,1180.00
2019-05-02T17:50:32.957Z,1548.00
2019-05-02T17:51:35.755Z,1800.00
2019-05-02T17:52:33.226Z,1948.00
2019-05-02T17:53:33.777Z,1524.00
2019-05-02T17:54:33.225Z,1132.00
2019-05-02T17:55:40.148Z,712.00
2019-05-02T17:56:33.165Z,600.00
2019-05-02T17:57:33.337Z,712.00
2019-05-02T17:58:32.145Z,896.00
2019-05-02T17:59:36.054Z,940.00
2019-05-02T18:00:33.464Z,1188.00
2019-05-02T18:01:35.025Z,1184.00
2019-05-02T18:02:32.104Z,912.00
2019-05-02T18:03:35.237Z,844.00
2019-05-02T18:04:32.533Z,684.00
2019-05-02T18:05:35.656Z,736.00
2019-05-02T18:06:35.309Z,864.00
2019-05-02T18:07:36.117Z,992.00
2019-05-02T18:08:32.384Z,1044.00
2019-05-02T18:09:35.022Z,1004.00
2019-05-02T18:10:32.349Z,1004.00
2019-05-02T18:11:36.394Z,964.00
2019-05-02T18:12:33.042Z,904.00
2019-05-02T18:13:33.986Z,852.00
2019-05-02T18:14:31.974Z,828.00
2019-05-02T18:15:34.686Z,792.00
2019-05-02T18:16:32.418Z,764.00
2019-05-02T18:17:31.934Z,732.00
2019-05-02T18:18:32.114Z,700.00
2019-05-02T18:19:31.913Z,664.00
2019-05-02T18:20:32.475Z,656.00
2019-05-02T18:21:32.355Z,652.00
2019-05-02T18:22:34.677Z,644.00
2019-05-02T18:23:32.243Z,648.00
2019-05-02T18:24:32.800Z,652.00
2019-05-02T18:25:31.861Z,660.00
2019-05-02T18:26:31.884Z,668.00
2019-05-02T18:27:31.839Z,668.00
2019-05-02T18:28:31.828Z,672.00
2019-05-02T18:29:36.249Z,664.00
2019-05-02T18:30:32.834Z,648.00
2019-05-02T18:31:34.805Z,632.00
2019-05-02T18:32:32.789Z,616.00
2019-05-02T18:33:35.845Z,584.00
2019-05-02T18:34:32.759Z,552.00
2019-05-02T18:35:32.543Z,512.00
2019-05-02T18:36:32.110Z,468.00
2019-05-02T18:37:32.558Z,456.00
2019-05-02T18:38:32.414Z,416.00
2019-05-02T18:39:34.874Z,388.00
2019-05-02T18:40:32.699Z,328.00
2019-05-02T18:41:31.901Z,276.00
2019-05-02T18:42:31.826Z,232.00
2019-05-02T18:43:36.091Z,224.00
2019-05-02T18:44:32.673Z,244.00
2019-05-02T18:45:31.947Z,240.00
2019-05-02T18:46:31.670Z,216.00
2019-05-02T18:47:33.490Z,184.00
2019-05-02T18:48:31.944Z,164.00
2019-05-02T18:49:32.133Z,152.00
2019-05-02T18:50:32.022Z,160.00
2019-05-02T18:51:32.047Z,160.00
2019-05-02T18:52:38.347Z,156.00
2019-05-02T18:53:32.785Z,148.00
2019-05-02T18:54:31.550Z,132.00
2019-05-02T18:55:31.808Z,124.00
2019-05-02T18:56:34.288Z,108.00
2019-05-02T18:57:32.503Z,108.00
2019-05-02T18:58:31.988Z,96.00
2019-05-02T18:59:32.024Z,84.00
2019-05-02T19:00:37.852Z,68.00
2019-05-02T19:01:32.456Z,48.00
2019-05-02T19:02:34.387Z,36.00
2019-05-02T19:03:33.250Z,36.00
2019-05-02T19:04:38.246Z,24.00
2019-05-02T19:05:32.654Z,20.00
2019-05-02T19:06:33.230Z,16.00
2019-05-02T19:07:35.617Z,20.00
2019-05-02T19:08:38.777Z,24.00
2019-05-02T19:09:33.176Z,24.00
2019-05-02T19:10:32.400Z,20.00
2019-05-02T19:11:35.093Z,16.00
2019-05-02T19:12:32.826Z,12.00
2019-05-02T19:13:32.696Z,8.00
2019-05-02T19:14:32.755Z,8.00
2019-05-02T19:15:34.011Z,8.00
2019-05-02T19:16:31.776Z,8.00
2019-05-02T19:17:31.334Z,4.00
2019-05-02T19:18:32.352Z,4.00
2019-05-02T19:19:32.988Z,0.00
2019-05-02T19:20:32.639Z,4.00
2019-05-02T19:21:36.065Z,4.00
2019-05-02T19:22:32.288Z,0.00
2019-05-02T19:23:32.031Z,0.00
2019-05-02T19:24:34.885Z,0.00
2019-05-02T19:25:32.188Z,0.00
2019-05-02T19:26:32.648Z,0.00
2019-05-02T19:27:32.799Z,0.00
2019-05-02T19:28:34.643Z,0.00
2019-05-02T19:29:32.165Z,0.00
2019-05-02T19:30:32.627Z,0.00
2019-05-02T19:31:32.027Z,0.00
2019-05-02T19:32:32.030Z,0.00
2019-05-02T19:33:31.885Z,0.00
2019-05-02T19:34:32.343Z,0.00
2019-05-02T19:35:32.798Z,0.00
2019-05-02T19:36:32.732Z,0.00
2019-05-02T19:37:31.632Z,0.00
2019-05-02T19:38:32.351Z,0.00
2019-05-02T19:39:32.264Z,0.00
2019-05-02T19:40:31.833Z,0.00
2019-05-02T19:41:32.063Z,0.00
2019-05-02T19:42:31.006Z,0.00
2019-05-02T19:43:32.468Z,0.00
2019-05-02T19:44:32.039Z,0.00
2019-05-02T19:45:32.720Z,0.00
2019-05-02T19:46:35.172Z,0.00
2019-05-02T19:47:31.952Z,0.00
2019-05-02T19:48:34.351Z,0.00
2019-05-02T19:49:32.910Z,0.00
2019-05-02T19:50:34.728Z,0.00
2019-05-02T19:51:31.957Z,0.00
2019-05-02T19:52:39.184Z,0.00
2019-05-02T19:53:32.366Z,0.00
2019-05-02T19:54:33.539Z,0.00
2019-05-02T19:55:32.176Z,0.00
2019-05-02T19:56:34.249Z,0.00
2019-05-02T19:57:32.383Z,0.00
2019-05-02T19:58:32.024Z,0.00
2019-05-02T19:59:32.133Z,0.00
2019-05-02T20:00:31.817Z,0.00
2019-05-02T20:01:30.820Z,0.00